createdAt,value
2017-02-21T00:00:33.808Z,93.18
2017-02-21T00:01:14.381Z,93.37
2017-02-21T00:01:54.965Z,93.37
2017-02-21T00:02:35.539Z,93.37
2017-02-21T00:03:16.126Z,93.55
2017-02-21T00:03:56.700Z,93.55
2017-02-21T00:04:37.277Z,93.37
2017-02-21T00:05:17.841Z,93.65
2017-02-21T00:05:58.418Z,93.37
2017-02-21T00:06:38.988Z,93.37
2017-02-21T00:07:19.552Z,93.55
2017-02-21T00:08:00.128Z,93.27
2017-02-21T00:08:40.696Z,93.37
2017-02-21T00:09:21.267Z,93.27
2017-02-21T00:10:01.842Z,93.55
2017-02-21T00:10:42.425Z,93.55
2017-02-21T00:11:23.004Z,93.6
2017-02-21T00:12:03.630Z,93.27
2017-02-21T00:12:44.213Z,93.46
2017-02-21T00:13:24.811Z,93.37
2017-02-21T00:14:05.390Z,93.37
2017-02-21T00:14:45.965Z,93.37
2017-02-21T00:15:26.547Z,93.27
2017-02-21T00:16:07.124Z,93.37
2017-02-21T00:16:47.701Z,93.6
2017-02-21T00:17:28.295Z,93.65
2017-02-21T00:18:08.868Z,93.37
2017-02-21T00:18:49.450Z,93.37
2017-02-21T00:19:30.028Z,93.37
2017-02-21T00:20:10.635Z,93.55
2017-02-21T00:20:51.217Z,93.37
2017-02-21T00:21:31.802Z,93.51
2017-02-21T00:22:12.389Z,92.79
2017-02-21T00:22:52.963Z,92.79
2017-02-21T00:23:33.547Z,93.08
2017-02-21T00:24:14.108Z,93.08
2017-02-21T00:24:54.698Z,92.99
2017-02-21T00:25:35.281Z,93.03
2017-02-21T00:26:15.861Z,92.89
2017-02-21T00:26:56.427Z,92.51
2017-02-21T00:27:37.010Z,92.22
2017-02-21T00:28:17.602Z,92.74
2017-02-21T00:28:58.172Z,92.27
2017-02-21T00:29:38.739Z,92.46
2017-02-21T00:30:19.346Z,92.36
2017-02-21T00:30:59.906Z,92.36
2017-02-21T00:31:40.474Z,92.55
2017-02-21T00:32:21.067Z,92.27
2017-02-21T00:33:01.621Z,91.89
2017-02-21T00:33:42.231Z,92.36
2017-02-21T00:34:22.791Z,92.08
2017-02-21T00:35:03.361Z,91.79
2017-02-21T00:35:43.941Z,91.89
2017-02-21T00:36:24.512Z,92.08
2017-02-21T00:37:05.076Z,92.08
2017-02-21T00:37:45.651Z,92.18
2017-02-21T00:38:26.220Z,91.89
2017-02-21T00:39:06.782Z,92.08
2017-02-21T00:39:47.356Z,92.08
2017-02-21T00:40:27.935Z,91.99
2017-02-21T00:41:08.532Z,91.84
2017-02-21T00:41:49.105Z,91.46
2017-02-21T00:42:29.678Z,91.56
2017-02-21T00:43:10.289Z,91.37
2017-02-21T00:43:50.876Z,91.6
2017-02-21T00:44:31.455Z,91.46
2017-02-21T00:45:12.048Z,91.51
2017-02-21T00:45:52.652Z,91.51
2017-02-21T00:46:33.215Z,91.17
2017-02-21T00:47:13.790Z,91.17
2017-02-21T00:47:54.375Z,91.17
2017-02-21T00:48:34.986Z,91.31
2017-02-21T00:49:15.577Z,91.03
2017-02-21T00:49:56.162Z,91.31
2017-02-21T00:50:36.736Z,90.89
2017-02-21T00:51:17.310Z,90.89
2017-02-21T00:51:57.891Z,91.31
2017-02-21T00:52:38.468Z,91.13
2017-02-21T00:53:19.071Z,91.46
2017-02-21T00:53:59.647Z,90.51
2017-02-21T00:54:40.225Z,90.89
2017-02-21T00:55:20.788Z,90.89
2017-02-21T00:56:01.361Z,90.89
2017-02-21T00:56:41.936Z,90.99
2017-02-21T00:57:22.515Z,90.99
2017-02-21T00:58:03.106Z,90.99
2017-02-21T00:58:43.695Z,90.51
2017-02-21T00:59:24.272Z,90.51
2017-02-21T01:00:04.865Z,90.7
2017-02-21T01:00:45.448Z,90.89
2017-02-21T01:01:26.060Z,91.03
2017-02-21T01:02:06.677Z,91.17
2017-02-21T01:02:47.277Z,90.99
2017-02-21T01:03:27.864Z,90.89
2017-02-21T01:04:08.427Z,90.99
2017-02-21T01:04:49.008Z,90.89
2017-02-21T01:05:29.573Z,90.32
2017-02-21T01:06:10.158Z,90.51
2017-02-21T01:06:50.728Z,90.7
2017-02-21T01:07:31.304Z,90.8
2017-02-21T01:08:11.917Z,90.8
2017-02-21T01:08:52.488Z,90.42
2017-02-21T01:09:33.069Z,90.51
2017-02-21T01:10:13.656Z,90.51
2017-02-21T01:10:54.237Z,90.32
2017-02-21T01:11:34.829Z,90.22
2017-02-21T01:12:15.407Z,90.32
2017-02-21T01:12:55.980Z,90.13
2017-02-21T01:13:36.561Z,90.42
2017-02-21T01:14:17.144Z,90.51
2017-02-21T01:14:57.736Z,90.22
2017-02-21T01:15:38.308Z,90.13
2017-02-21T01:16:18.883Z,90.42
2017-02-21T01:16:59.470Z,90.32
2017-02-21T01:17:40.030Z,90.51
2017-02-21T01:18:20.624Z,90.13
2017-02-21T01:19:01.197Z,90.51
2017-02-21T01:19:41.761Z,90.42
2017-02-21T01:20:22.355Z,90.7
2017-02-21T01:21:02.919Z,89.84
2017-02-21T01:21:43.504Z,90.7
2017-02-21T01:22:24.083Z,89.94
2017-02-21T01:23:04.665Z,89.75
2017-02-21T01:23:45.266Z,90.32
2017-02-21T01:24:25.864Z,89.94
2017-02-21T01:25:06.422Z,90.03
2017-02-21T01:25:46.996Z,89.65
2017-02-21T01:26:27.561Z,89.47
2017-02-21T01:27:08.130Z,89.47
2017-02-21T01:27:48.725Z,89.27
2017-02-21T01:28:29.306Z,89.84
2017-02-21T01:29:09.900Z,89.65
2017-02-21T01:29:50.477Z,89.75
2017-02-21T01:30:31.059Z,89.65
2017-02-21T01:31:11.644Z,89.18
2017-02-21T01:31:52.258Z,89.37
2017-02-21T01:32:32.851Z,89.37
2017-02-21T01:33:13.442Z,89.47
2017-02-21T01:33:54.038Z,89.47
2017-02-21T01:34:34.607Z,89.65
2017-02-21T01:35:15.211Z,89.27
2017-02-21T01:35:55.755Z,89.08
2017-02-21T01:36:36.321Z,88.79
2017-02-21T01:37:16.888Z,88.7
2017-02-21T01:37:57.498Z,88.89
2017-02-21T01:38:38.090Z,88.6
2017-02-21T01:39:18.668Z,88.79
2017-02-21T01:39:59.244Z,88.79
2017-02-21T01:40:39.814Z,88.79
2017-02-21T01:41:20.387Z,88.79
2017-02-21T01:42:00.967Z,88.42
2017-02-21T01:42:41.597Z,88.23
2017-02-21T01:43:22.208Z,88.42
2017-02-21T01:44:02.849Z,88.79
2017-02-21T01:44:43.449Z,88.51
2017-02-21T01:45:24.024Z,88.79
2017-02-21T01:46:04.600Z,89.08
2017-02-21T01:46:45.186Z,89.18
2017-02-21T01:47:25.748Z,88.89
2017-02-21T01:48:06.308Z,89.08
2017-02-21T01:48:46.867Z,88.89
2017-02-21T01:49:27.470Z,88.7
2017-02-21T01:50:08.048Z,88.99
2017-02-21T01:50:48.646Z,88.42
2017-02-21T01:51:29.211Z,89.08
2017-02-21T01:52:09.778Z,89.27
2017-02-21T01:52:50.374Z,89.08
2017-02-21T01:53:30.971Z,88.99
2017-02-21T01:54:11.548Z,89.18
2017-02-21T01:54:52.119Z,88.79
2017-02-21T01:55:32.683Z,88.79
2017-02-21T01:56:13.279Z,88.23
2017-02-21T01:56:53.854Z,88.42
2017-02-21T01:57:34.485Z,87.94
2017-02-21T01:58:15.053Z,88.42
2017-02-21T01:58:55.642Z,88.13
2017-02-21T01:59:36.224Z,88.04
2017-02-21T02:00:16.799Z,87.56
2017-02-21T02:00:57.385Z,87.85
2017-02-21T02:01:37.982Z,87.75
2017-02-21T02:02:18.569Z,87.75
2017-02-21T02:02:59.181Z,87.85
2017-02-21T02:03:39.766Z,87.65
2017-02-21T02:04:20.338Z,88.13
2017-02-21T02:05:00.935Z,88.51
2017-02-21T02:05:41.525Z,88.23
2017-02-21T02:06:22.104Z,88.42
2017-02-21T02:07:02.684Z,88.32
2017-02-21T02:07:43.272Z,88.13
2017-02-21T02:08:23.837Z,88.51
2017-02-21T02:09:04.419Z,88.13
2017-02-21T02:09:44.993Z,87.94
2017-02-21T02:10:25.589Z,87.56
2017-02-21T02:11:06.151Z,88.32
2017-02-21T02:11:46.724Z,88.13
2017-02-21T02:12:27.294Z,87.75
2017-02-21T02:13:07.912Z,87.65
2017-02-21T02:13:48.501Z,87.37
2017-02-21T02:14:29.091Z,87.27
2017-02-21T02:15:09.702Z,87.46
2017-02-21T02:15:50.285Z,87.46
2017-02-21T02:16:30.879Z,87.56
2017-02-21T02:17:11.466Z,87.46
2017-02-21T02:17:52.041Z,87.37
2017-02-21T02:18:32.635Z,87.27
2017-02-21T02:19:13.215Z,87.27
2017-02-21T02:19:53.795Z,87.37
2017-02-21T02:20:34.375Z,87.56
2017-02-21T02:21:14.949Z,87.56
2017-02-21T02:21:55.535Z,87.85
2017-02-21T02:22:36.118Z,87.46
2017-02-21T02:23:16.690Z,87.37
2017-02-21T02:23:57.264Z,87.27
2017-02-21T02:24:37.860Z,87.37
2017-02-21T02:25:18.440Z,87.27
2017-02-21T02:25:59.013Z,87.08
2017-02-21T02:26:39.614Z,86.8
2017-02-21T02:27:20.215Z,86.61
2017-02-21T02:28:00.787Z,86.42
2017-02-21T02:28:41.378Z,86.99
2017-02-21T02:29:21.973Z,86.7
2017-02-21T02:30:02.585Z,86.9
2017-02-21T02:30:43.127Z,86.61
2017-02-21T02:31:23.712Z,86.99
2017-02-21T02:32:04.279Z,86.51
2017-02-21T02:32:44.847Z,86.42
2017-02-21T02:33:25.416Z,86.7
2017-02-21T02:34:06.001Z,86.99
2017-02-21T02:34:46.576Z,86.7
2017-02-21T02:35:27.157Z,86.8
2017-02-21T02:36:07.737Z,86.61
2017-02-21T02:36:48.305Z,86.61
2017-02-21T02:37:28.888Z,86.61
2017-02-21T02:38:09.458Z,86.9
2017-02-21T02:38:50.048Z,86.61
2017-02-21T02:39:30.643Z,86.7
2017-02-21T02:40:11.244Z,86.61
2017-02-21T02:40:51.806Z,86.8
2017-02-21T02:41:32.385Z,86.61
2017-02-21T02:42:13.002Z,86.9
2017-02-21T02:42:53.545Z,86.13
2017-02-21T02:43:34.181Z,86.42
2017-02-21T02:44:14.703Z,86.32
2017-02-21T02:44:55.275Z,86.32
2017-02-21T02:45:35.853Z,86.13
2017-02-21T02:46:16.431Z,86.32
2017-02-21T02:46:57.006Z,85.85
2017-02-21T02:47:37.593Z,85.47
2017-02-21T02:48:18.174Z,85.66
2017-02-21T02:48:58.763Z,85.66
2017-02-21T02:49:39.348Z,85.56
2017-02-21T02:50:19.938Z,85.47
2017-02-21T02:51:00.513Z,85.47
2017-02-21T02:51:41.112Z,85.85
2017-02-21T02:52:21.695Z,85.66
2017-02-21T02:53:02.272Z,85.66
2017-02-21T02:53:42.841Z,85.75
2017-02-21T02:54:23.465Z,85.75
2017-02-21T02:55:04.047Z,85.85
2017-02-21T02:55:44.625Z,85.18
2017-02-21T02:56:25.210Z,85.28
2017-02-21T02:57:05.815Z,85.18
2017-02-21T02:57:46.370Z,85.56
2017-02-21T02:58:26.950Z,85.85
2017-02-21T02:59:07.528Z,85.56
2017-02-21T02:59:48.109Z,85.47
2017-02-21T03:00:28.679Z,85.66
2017-02-21T03:01:09.263Z,85.66
2017-02-21T03:01:49.842Z,85.37
2017-02-21T03:02:30.422Z,85.75
2017-02-21T03:03:10.995Z,85.66
2017-02-21T03:03:51.592Z,85.66
2017-02-21T03:04:32.177Z,85.37
2017-02-21T03:05:12.790Z,85.66
2017-02-21T03:05:53.400Z,85.56
2017-02-21T03:06:33.995Z,85.66
2017-02-21T03:07:14.570Z,85.56
2017-02-21T03:07:55.146Z,85.37
2017-02-21T03:08:35.738Z,85.56
2017-02-21T03:09:16.337Z,85.47
2017-02-21T03:09:56.954Z,85.56
2017-02-21T03:10:37.544Z,85.66
2017-02-21T03:11:18.125Z,85.94
2017-02-21T03:11:58.755Z,85.75
2017-02-21T03:12:39.317Z,85.75
2017-02-21T03:13:19.908Z,85.85
2017-02-21T03:14:00.496Z,85.94
2017-02-21T03:14:41.081Z,85.56
2017-02-21T03:15:21.655Z,85.47
2017-02-21T03:16:02.252Z,85.56
2017-02-21T03:16:42.904Z,85.66
2017-02-21T03:17:23.515Z,85.75
2017-02-21T03:18:04.108Z,85.75
2017-02-21T03:18:44.689Z,85.75
2017-02-21T03:19:25.275Z,85.66
2017-02-21T03:20:05.855Z,85.56
2017-02-21T03:20:46.423Z,85.08
2017-02-21T03:21:27.032Z,85.47
2017-02-21T03:22:07.613Z,84.89
2017-02-21T03:22:48.217Z,85.18
2017-02-21T03:23:28.779Z,84.99
2017-02-21T03:24:09.379Z,85.08
2017-02-21T03:24:49.977Z,85.08
2017-02-21T03:25:30.570Z,85.08
2017-02-21T03:26:11.137Z,85.08
2017-02-21T03:26:51.720Z,85.47
2017-02-21T03:27:32.315Z,85.18
2017-02-21T03:28:12.879Z,85.37
2017-02-21T03:28:53.477Z,85.56
2017-02-21T03:29:34.036Z,85.28
2017-02-21T03:30:14.602Z,85.47
2017-02-21T03:30:55.179Z,85.47
2017-02-21T03:31:35.774Z,85.47
2017-02-21T03:32:16.339Z,85.37
2017-02-21T03:32:56.919Z,85.28
2017-02-21T03:33:37.492Z,85.08
2017-02-21T03:34:18.064Z,84.99
2017-02-21T03:34:58.634Z,84.89
2017-02-21T03:35:39.234Z,85.28
2017-02-21T03:36:19.816Z,84.61
2017-02-21T03:37:00.388Z,84.42
2017-02-21T03:37:40.977Z,84.61
2017-02-21T03:38:21.580Z,84.7
2017-02-21T03:39:02.174Z,84.89
2017-02-21T03:39:42.751Z,84.8
2017-02-21T03:40:23.321Z,84.89
2017-02-21T03:41:03.892Z,84.7
2017-02-21T03:41:44.467Z,84.33
2017-02-21T03:42:25.054Z,84.33
2017-02-21T03:43:05.649Z,84.33
2017-02-21T03:43:46.234Z,84.33
2017-02-21T03:44:26.807Z,84.52
2017-02-21T03:45:07.417Z,84.61
2017-02-21T03:45:48.005Z,84.61
2017-02-21T03:46:28.614Z,84.7
2017-02-21T03:47:09.181Z,84.13
2017-02-21T03:47:49.770Z,84.42
2017-02-21T03:48:30.414Z,84.23
2017-02-21T03:49:11.003Z,84.33
2017-02-21T03:49:51.576Z,84.23
2017-02-21T03:50:32.159Z,83.94
2017-02-21T03:51:12.735Z,83.75
2017-02-21T03:51:53.310Z,83.94
2017-02-21T03:52:33.951Z,83.94
2017-02-21T03:53:14.565Z,83.85
2017-02-21T03:53:55.140Z,83.75
2017-02-21T03:54:35.723Z,84.13
2017-02-21T03:55:16.294Z,83.94
2017-02-21T03:55:56.877Z,84.42
2017-02-21T03:56:37.474Z,83.94
2017-02-21T03:57:18.049Z,84.04
2017-02-21T03:57:58.621Z,84.04
2017-02-21T03:58:39.188Z,83.85
2017-02-21T03:59:19.757Z,83.75
2017-02-21T04:00:00.342Z,83.85
2017-02-21T04:00:40.958Z,83.85
2017-02-21T04:01:21.548Z,83.85
2017-02-21T04:02:02.121Z,83.56
2017-02-21T04:02:42.695Z,83.65
2017-02-21T04:03:23.271Z,83.65
2017-02-21T04:04:03.893Z,83.75
2017-02-21T04:04:44.474Z,83.85
2017-02-21T04:05:25.055Z,83.85
2017-02-21T04:06:05.628Z,84.04
2017-02-21T04:06:46.206Z,83.85
2017-02-21T04:07:26.778Z,84.04
2017-02-21T04:08:07.384Z,84.23
2017-02-21T04:08:47.953Z,83.75
2017-02-21T04:09:28.533Z,83.94
2017-02-21T04:10:09.104Z,84.04
2017-02-21T04:10:49.670Z,84.13
2017-02-21T04:11:30.274Z,83.94
2017-02-21T04:12:10.843Z,83.94
2017-02-21T04:12:51.448Z,83.85
2017-02-21T04:13:32.019Z,84.13
2017-02-21T04:14:12.659Z,83.94
2017-02-21T04:14:53.234Z,83.75
2017-02-21T04:15:33.811Z,83.94
2017-02-21T04:16:14.381Z,84.04
2017-02-21T04:16:54.961Z,84.13
2017-02-21T04:17:35.556Z,83.85
2017-02-21T04:18:16.129Z,84.04
2017-02-21T04:18:56.717Z,83.94
2017-02-21T04:19:37.290Z,83.94
2017-02-21T04:20:17.887Z,83.94
2017-02-21T04:20:58.473Z,84.13
2017-02-21T04:21:39.045Z,84.13
2017-02-21T04:22:19.658Z,83.94
2017-02-21T04:23:00.237Z,84.04
2017-02-21T04:23:40.836Z,83.94
2017-02-21T04:24:21.406Z,84.04
2017-02-21T04:25:01.970Z,84.13
2017-02-21T04:25:42.565Z,84.04
2017-02-21T04:26:23.166Z,84.04
2017-02-21T04:27:03.727Z,83.85
2017-02-21T04:27:44.293Z,84.13
2017-02-21T04:28:24.854Z,83.65
2017-02-21T04:29:05.437Z,83.56
2017-02-21T04:29:46.061Z,83.47
2017-02-21T04:30:26.593Z,83.65
2017-02-21T04:31:07.175Z,83.56
2017-02-21T04:31:47.748Z,83.56
2017-02-21T04:32:28.342Z,83.56
2017-02-21T04:33:08.927Z,83.47
2017-02-21T04:33:49.498Z,83.75
2017-02-21T04:34:30.058Z,83.75
2017-02-21T04:35:10.642Z,83.56
2017-02-21T04:35:51.228Z,83.37
2017-02-21T04:36:31.810Z,83.28
2017-02-21T04:37:12.391Z,83.56
2017-02-21T04:37:52.984Z,83.65
2017-02-21T04:38:33.569Z,83.75
2017-02-21T04:39:14.146Z,83.56
2017-02-21T04:39:54.706Z,83.56
2017-02-21T04:40:35.288Z,83.47
2017-02-21T04:41:15.869Z,82.99
2017-02-21T04:41:56.451Z,82.99
2017-02-21T04:42:37.023Z,83.56
2017-02-21T04:43:17.603Z,83.28
2017-02-21T04:43:58.207Z,82.9
2017-02-21T04:44:38.779Z,82.8
2017-02-21T04:45:19.372Z,82.7
2017-02-21T04:45:59.956Z,83.09
2017-02-21T04:46:40.600Z,82.99
2017-02-21T04:47:21.221Z,83.28
2017-02-21T04:48:01.834Z,83.28
2017-02-21T04:48:42.409Z,82.61
2017-02-21T04:49:24.243Z,82.61
2017-02-21T04:50:07.369Z,82.61
2017-02-21T04:50:49.081Z,82.99
2017-02-21T04:51:30.598Z,83.09
2017-02-21T04:52:13.127Z,82.42
2017-02-21T04:52:53.704Z,82.99
2017-02-21T04:53:34.293Z,82.99
2017-02-21T04:54:14.867Z,83.09
2017-02-21T04:54:55.481Z,83.09
2017-02-21T04:55:36.082Z,82.61
2017-02-21T04:56:16.651Z,82.99
2017-02-21T04:56:57.225Z,83.18
2017-02-21T04:57:37.839Z,83.09
2017-02-21T04:58:18.405Z,83.65
2017-02-21T04:58:58.975Z,83.47
2017-02-21T04:59:39.586Z,83.47
2017-02-21T05:00:20.188Z,83.47
2017-02-21T05:01:00.768Z,83.56
2017-02-21T05:01:41.374Z,83.71
2017-02-21T05:02:21.951Z,83.75
2017-02-21T05:03:02.524Z,83.94
2017-02-21T05:03:43.116Z,83.81
2017-02-21T05:04:23.696Z,84.09
2017-02-21T05:05:04.275Z,83.94
2017-02-21T05:05:44.885Z,83.85
2017-02-21T05:06:25.480Z,83.75
2017-02-21T05:07:06.069Z,83.75
2017-02-21T05:07:46.644Z,84.13
2017-02-21T05:08:27.213Z,84.38
2017-02-21T05:09:07.778Z,84.42
2017-02-21T05:09:48.398Z,84.42
2017-02-21T05:10:28.989Z,84.19
2017-02-21T05:11:09.567Z,84.52
2017-02-21T05:11:50.175Z,84.61
2017-02-21T05:12:30.743Z,84.8
2017-02-21T05:13:11.312Z,84.61
2017-02-21T05:13:51.885Z,84.56
2017-02-21T05:14:32.460Z,84.56
2017-02-21T05:15:13.052Z,84.76
2017-02-21T05:15:53.617Z,84.42
2017-02-21T05:16:34.206Z,83.85
2017-02-21T05:17:14.782Z,84.23
2017-02-21T05:17:55.361Z,83.65
2017-02-21T05:18:35.965Z,83.85
2017-02-21T05:19:16.540Z,83.56
2017-02-21T05:19:57.183Z,83.37
2017-02-21T05:20:37.767Z,83.52
2017-02-21T05:21:18.347Z,83.42
2017-02-21T05:21:58.925Z,83.62
2017-02-21T05:22:39.502Z,83.56
2017-02-21T05:23:20.090Z,83.33
2017-02-21T05:24:00.688Z,83.33
2017-02-21T05:24:41.310Z,83.37
2017-02-21T05:25:21.893Z,83.28
2017-02-21T05:26:02.466Z,83.65
2017-02-21T05:26:43.065Z,83.65
2017-02-21T05:27:23.649Z,83.47
2017-02-21T05:28:04.229Z,83.65
2017-02-21T05:28:44.800Z,83.14
2017-02-21T05:29:25.393Z,83.28
2017-02-21T05:31:18.001Z,83.23
2017-02-21T05:31:58.551Z,83.62
2017-02-21T05:32:39.133Z,83.62
2017-02-21T05:33:19.724Z,83.62
2017-02-21T05:34:00.305Z,83.62
2017-02-21T05:34:40.879Z,83.18
2017-02-21T05:35:21.469Z,83.65
2017-02-21T05:36:02.039Z,83.42
2017-02-21T05:36:42.639Z,83.33
2017-02-21T05:37:23.216Z,83.81
2017-02-21T05:38:03.780Z,83.14
2017-02-21T05:38:44.353Z,83.62
2017-02-21T05:39:24.931Z,83.28
2017-02-21T05:40:05.537Z,82.86
2017-02-21T05:40:46.111Z,82.57
2017-02-21T05:41:26.706Z,82.38
2017-02-21T05:42:07.312Z,82.61
2017-02-21T05:42:47.909Z,82.86
2017-02-21T05:43:28.516Z,83.09
2017-02-21T05:44:09.088Z,83.14
2017-02-21T05:44:49.669Z,83.18
2017-02-21T05:45:30.235Z,82.67
2017-02-21T05:46:10.807Z,82.9
2017-02-21T05:46:51.370Z,82.7
2017-02-21T05:47:31.974Z,82.8
2017-02-21T05:48:12.551Z,82.61
2017-02-21T05:48:53.123Z,82.76
2017-02-21T05:49:33.714Z,82.67
2017-02-21T05:50:14.276Z,82.86
2017-02-21T05:50:54.848Z,83.14
2017-02-21T05:51:35.425Z,83.04
2017-02-21T05:52:16.010Z,82.76
2017-02-21T05:52:56.614Z,82.48
2017-02-21T05:53:37.181Z,82.7
2017-02-21T05:54:17.766Z,82.28
2017-02-21T05:54:58.357Z,83.14
2017-02-21T05:55:38.942Z,83.42
2017-02-21T05:56:19.519Z,82.76
2017-02-21T05:57:00.255Z,82.76
2017-02-21T05:57:40.873Z,82.95
2017-02-21T05:58:21.443Z,82.28
2017-02-21T05:59:02.052Z,82.42
2017-02-21T05:59:42.629Z,82.57
2017-02-21T06:00:23.211Z,83.14
2017-02-21T06:01:03.784Z,82.95
2017-02-21T06:01:44.361Z,82.99
2017-02-21T06:02:24.928Z,83.09
2017-02-21T06:03:05.486Z,82.61
2017-02-21T06:03:46.057Z,82.57
2017-02-21T06:04:26.627Z,82.14
2017-02-21T06:05:07.231Z,82.23
2017-02-21T06:05:47.808Z,82.04
2017-02-21T06:06:28.367Z,82.14
2017-02-21T06:07:08.954Z,82.57
2017-02-21T06:07:49.512Z,82.28
2017-02-21T06:08:30.082Z,82.7
2017-02-21T06:09:10.655Z,82.67
2017-02-21T06:09:51.228Z,82.67
2017-02-21T06:10:31.808Z,82.57
2017-02-21T06:11:12.372Z,82.28
2017-02-21T06:11:52.969Z,82.38
2017-02-21T06:12:33.546Z,82.14
2017-02-21T06:13:14.117Z,82.28
2017-02-21T06:13:54.690Z,82.28
2017-02-21T06:14:35.257Z,82.32
2017-02-21T06:15:15.819Z,82
2017-02-21T06:15:56.404Z,82.28
2017-02-21T06:16:36.979Z,82.28
2017-02-21T06:17:17.609Z,82.19
2017-02-21T06:17:58.194Z,82.28
2017-02-21T06:18:38.804Z,82.28
2017-02-21T06:19:19.384Z,82
2017-02-21T06:19:59.988Z,82.09
2017-02-21T06:20:40.573Z,82.09
2017-02-21T06:21:21.151Z,82.38
2017-02-21T06:22:01.725Z,82.28
2017-02-21T06:22:42.333Z,82.28
2017-02-21T06:23:22.879Z,82.28
2017-02-21T06:24:03.456Z,82.28
2017-02-21T06:24:44.021Z,82.28
2017-02-21T06:25:24.594Z,82.28
2017-02-21T06:26:05.171Z,82.48
2017-02-21T06:26:45.733Z,81.81
2017-02-21T06:27:26.309Z,81.9
2017-02-21T06:28:06.884Z,82
2017-02-21T06:28:47.603Z,82
2017-02-21T06:29:28.259Z,82.48
2017-02-21T06:30:08.936Z,82.38
2017-02-21T06:30:49.595Z,82.38
2017-02-21T06:31:30.187Z,82.28
2017-02-21T06:32:10.753Z,82.38
2017-02-21T06:32:51.379Z,82
2017-02-21T06:33:31.954Z,82
2017-02-21T06:34:12.541Z,81.76
2017-02-21T06:34:53.118Z,81.71
2017-02-21T06:35:33.712Z,81.62
2017-02-21T06:36:14.282Z,82
2017-02-21T06:36:54.850Z,81.9
2017-02-21T06:37:35.441Z,81.37
2017-02-21T06:38:16.012Z,81.24
2017-02-21T06:38:56.591Z,81.52
2017-02-21T06:39:37.150Z,81.43
2017-02-21T06:40:17.746Z,81.18
2017-02-21T06:40:58.319Z,81.81
2017-02-21T06:41:38.904Z,81.71
2017-02-21T06:42:19.477Z,81.81
2017-02-21T06:43:00.039Z,81.56
2017-02-21T06:43:40.613Z,81.71
2017-02-21T06:44:21.214Z,81.9
2017-02-21T06:45:01.776Z,81.76
2017-02-21T06:45:42.365Z,81.62
2017-02-21T06:46:22.932Z,81.9
2017-02-21T06:47:03.517Z,81.9
2017-02-21T06:47:44.096Z,81.9
2017-02-21T06:48:24.668Z,81.66
2017-02-21T06:49:05.237Z,81.56
2017-02-21T06:49:45.930Z,81.85
2017-02-21T06:50:26.522Z,81.81
2017-02-21T06:51:07.119Z,82.14
2017-02-21T06:51:47.739Z,81.47
2017-02-21T06:52:28.328Z,81.43
2017-02-21T06:53:08.936Z,81.37
2017-02-21T06:53:49.514Z,81.09
2017-02-21T06:54:30.075Z,81.43
2017-02-21T06:55:10.689Z,81.81
2017-02-21T06:55:51.276Z,81.81
2017-02-21T06:56:31.849Z,81.85
2017-02-21T06:57:12.436Z,81.71
2017-02-21T06:57:53.054Z,82
2017-02-21T06:58:33.634Z,82.04
2017-02-21T06:59:14.199Z,81.76
2017-02-21T06:59:54.785Z,81.81
2017-02-21T07:00:35.405Z,81.76
2017-02-21T07:01:15.980Z,82.04
2017-02-21T07:01:56.577Z,81.9
2017-02-21T07:02:37.174Z,81.71
2017-02-21T07:03:17.717Z,81.85
2017-02-21T07:03:58.300Z,82.04
2017-02-21T07:04:38.876Z,81.66
2017-02-21T07:05:19.464Z,81.95
2017-02-21T07:06:00.045Z,81.62
2017-02-21T07:06:40.636Z,81.9
2017-02-21T07:07:21.211Z,81.71
2017-02-21T07:08:01.784Z,81.95
2017-02-21T07:08:42.364Z,81.95
2017-02-21T07:09:22.956Z,81.81
2017-02-21T07:10:03.525Z,82.51
2017-02-21T07:10:44.102Z,82.42
2017-02-21T07:11:24.702Z,82.28
2017-02-21T07:12:05.275Z,82.51
2017-02-21T07:12:45.847Z,82.28
2017-02-21T07:13:26.415Z,82
2017-02-21T07:14:06.982Z,82.57
2017-02-21T07:14:47.563Z,82.7
2017-02-21T07:15:28.127Z,82.57
2017-02-21T07:16:08.698Z,82.67
2017-02-21T07:16:49.268Z,82.28
2017-02-21T07:17:29.878Z,82.09
2017-02-21T07:18:10.457Z,82.95
2017-02-21T07:18:51.031Z,82.67
2017-02-21T07:19:31.633Z,83.04
2017-02-21T07:20:12.199Z,82.76
2017-02-21T07:20:52.770Z,82.76
2017-02-21T07:21:33.344Z,82.76
2017-02-21T07:22:13.924Z,82.86
2017-02-21T07:22:54.525Z,83.14
2017-02-21T07:23:35.097Z,82.86
2017-02-21T07:24:15.670Z,82.76
2017-02-21T07:24:56.288Z,82.95
2017-02-21T07:25:36.863Z,82.7
2017-02-21T07:26:17.434Z,82.86
2017-02-21T07:26:58.015Z,83.52
2017-02-21T07:27:38.644Z,82.95
2017-02-21T07:28:19.210Z,83.04
2017-02-21T07:28:59.789Z,82.9
2017-02-21T07:29:40.394Z,82.86
2017-02-21T07:30:20.971Z,83.42
2017-02-21T07:31:01.537Z,83.04
2017-02-21T07:31:42.123Z,82.95
2017-02-21T07:32:22.704Z,83.04
2017-02-21T07:33:03.287Z,83.42
2017-02-21T07:33:43.860Z,83.23
2017-02-21T07:34:24.474Z,82.95
2017-02-21T07:35:05.054Z,82.95
2017-02-21T07:35:45.621Z,82.86
2017-02-21T07:36:26.232Z,83.85
2017-02-21T07:37:06.810Z,83.62
2017-02-21T07:37:47.411Z,83.52
2017-02-21T07:38:27.994Z,83.23
2017-02-21T07:39:08.576Z,83.09
2017-02-21T07:39:49.175Z,83.23
2017-02-21T07:40:29.764Z,83.28
2017-02-21T07:41:10.335Z,82.86
2017-02-21T07:41:50.906Z,82.9
2017-02-21T07:42:31.491Z,82.86
2017-02-21T07:43:12.076Z,83.09
2017-02-21T07:43:52.668Z,82.86
2017-02-21T07:44:33.241Z,83.04
2017-02-21T07:45:13.806Z,83.04
2017-02-21T07:45:54.371Z,82.61
2017-02-21T07:46:34.936Z,82.61
2017-02-21T07:47:15.510Z,82.57
2017-02-21T07:47:56.101Z,83.09
2017-02-21T07:48:36.673Z,82.95
2017-02-21T07:49:17.276Z,82.9
2017-02-21T07:49:57.869Z,83.18
2017-02-21T07:50:38.487Z,83.14
2017-02-21T07:51:19.042Z,82.9
2017-02-21T07:51:59.638Z,82.99
2017-02-21T07:52:40.208Z,82.61
2017-02-21T07:53:20.784Z,82.61
2017-02-21T07:54:01.388Z,82.67
2017-02-21T07:54:42.000Z,82.67
2017-02-21T07:55:22.553Z,82.95
2017-02-21T07:56:03.100Z,82.99
2017-02-21T07:56:43.690Z,82.7
2017-02-21T07:57:24.307Z,83.04
2017-02-21T07:58:04.884Z,83.04
2017-02-21T07:58:45.508Z,83.18
2017-02-21T07:59:26.085Z,82.9
2017-02-21T08:00:06.658Z,82.99
2017-02-21T08:00:47.253Z,82.9
2017-02-21T08:01:27.844Z,82.32
2017-02-21T08:02:08.411Z,82.61
2017-02-21T08:02:48.992Z,82.7
2017-02-21T08:03:29.563Z,82.32
2017-02-21T08:04:10.144Z,82.42
2017-02-21T08:04:50.700Z,82.51
2017-02-21T08:05:31.278Z,82.51
2017-02-21T08:06:11.841Z,82.61
2017-02-21T08:06:52.419Z,82.23
2017-02-21T08:07:33.025Z,82.61
2017-02-21T08:08:13.607Z,82.7
2017-02-21T08:08:54.178Z,82.32
2017-02-21T08:09:34.748Z,82.23
2017-02-21T08:10:15.332Z,82.04
2017-02-21T08:10:55.897Z,82.32
2017-02-21T08:11:36.476Z,82.7
2017-02-21T08:12:17.073Z,82.42
2017-02-21T08:12:57.660Z,82.32
2017-02-21T08:13:38.237Z,82.32
2017-02-21T08:14:18.810Z,82.61
2017-02-21T08:14:59.370Z,82.42
2017-02-21T08:15:39.945Z,82.42
2017-02-21T08:16:20.518Z,82.42
2017-02-21T08:17:01.099Z,82.7
2017-02-21T08:17:41.706Z,82.99
2017-02-21T08:18:22.320Z,82.99
2017-02-21T08:19:02.902Z,82.32
2017-02-21T08:19:43.507Z,83.28
2017-02-21T08:20:24.084Z,82.8
2017-02-21T08:21:04.686Z,82.7
2017-02-21T08:21:45.266Z,83.18
2017-02-21T08:22:25.858Z,82.99
2017-02-21T08:23:06.412Z,82.99
2017-02-21T08:23:47.032Z,82.99
2017-02-21T08:24:27.619Z,83.09
2017-02-21T08:25:08.207Z,83.28
2017-02-21T08:25:48.797Z,82.7
2017-02-21T08:26:29.362Z,82.9
2017-02-21T08:27:09.957Z,83.18
2017-02-21T08:27:50.529Z,83.56
2017-02-21T08:28:31.145Z,83.18
2017-02-21T08:29:11.713Z,83.28
2017-02-21T08:29:52.290Z,83.37
2017-02-21T08:30:32.871Z,83.09
2017-02-21T08:31:13.453Z,83.47
2017-02-21T08:31:54.038Z,83.42
2017-02-21T08:32:34.645Z,83.62
2017-02-21T08:33:15.245Z,83.94
2017-02-21T08:33:55.817Z,84.13
2017-02-21T08:34:36.415Z,83.9
2017-02-21T08:35:17.005Z,83.94
2017-02-21T08:35:57.601Z,83.85
2017-02-21T08:36:38.171Z,83.94
2017-02-21T08:37:18.742Z,84.09
2017-02-21T08:37:59.308Z,84.28
2017-02-21T08:38:39.883Z,84.38
2017-02-21T08:39:20.476Z,84.56
2017-02-21T08:40:01.051Z,84.47
2017-02-21T08:40:41.622Z,84.28
2017-02-21T08:41:22.199Z,84.28
2017-02-21T08:42:02.805Z,84.66
2017-02-21T08:42:43.398Z,84.38
2017-02-21T08:43:23.981Z,84.52
2017-02-21T08:44:04.569Z,84.56
2017-02-21T08:44:45.135Z,84.47
2017-02-21T08:45:25.709Z,84.76
2017-02-21T08:46:06.294Z,84.76